Wednesday, February 21, 2018, 8:14 PM EST
Back to Local

KHPN, White Plains Westchester

Location: Greenwich, NY, United States Lat: 41.067
Local Time: 8:14 PM EST ( 1:14 GMT) Lon: -73.7
Time Zone: US/Eastern Elev: 439 ft

Show me the last for .
Show Decoded

2018-02-21 19:41 METAR KHPN 220041Z 34019G28KT 10SM BKN044 19/12 A3029 RMK AO2 PK WND 33028/0034
                 WSHFT 0024 RAB12E27 P0000 T01940122 =
2018-02-21 18:56 METAR KHPN 212356Z 21004KT 10SM FEW060 22/14 A3025 RMK AO2 SLP240 60000
                 T02170139 10250 20211 53020 =
2018-02-21 17:56 METAR KHPN 212256Z 24005KT 10SM FEW040 23/14 A3022 RMK AO2 SLP232 T02330139 =
2018-02-21 16:56 METAR KHPN 212156Z 24006KT 10SM FEW030 24/14 A3019 RMK AO2 RAB47E52 SLP221 P0000
                 T02440139 =
2018-02-21 15:56 METAR KHPN 212056Z 24007G17KT 210V290 10SM FEW030 25/14 A3019 RMK AO2 SLP219
                 T02500139 55005 =
2018-02-21 14:56 METAR KHPN 211956Z VRB06G17KT 10SM FEW030 25/14 A3018 RMK AO2 SLP217 T02500139 =
2018-02-21 13:56 METAR KHPN 211856Z 22010G16KT 190V270 10SM FEW030 24/14 A3018 RMK AO2 SLP219
                 T02390144 =
2018-02-21 12:56 METAR KHPN 211756Z 19011G15KT 10SM CLR 23/14 A3020 RMK AO2 SLP225 T02280139
                 10228 20111 58020 =
2018-02-21 11:56 METAR KHPN 211656Z VRB06KT 10SM CLR 21/14 A3023 RMK AO2 SLP236 T02060144 =
2018-02-21 10:56 METAR KHPN 211556Z 25009G15KT 9SM FEW012 BKN015 18/14 A3026 RMK AO2 SLP245
                 T01830144 =
2018-02-21 09:56 METAR KHPN 211456Z 00000KT 4SM BR FEW010 BKN012 15/13 A3028 RMK AO2 SLP253
                 T01500133 58002 =
2018-02-21 08:56 METAR KHPN 211356Z 16003KT 1 1/2SM BR BKN006 BKN012 13/12 A3028 RMK AO2 SLP253
                 T01280122 =
2018-02-21 07:56 METAR KHPN 211256Z 17004KT 1 1/4SM BR BKN004 BKN012 12/12 A3029 RMK AO2 SLP258
                 T01170117 =
2018-02-21 06:56 METAR KHPN 211156Z COR 00000KT 1SM R16/P6000FT BR BKN004 BKN012 12/12 A3028 RMK
                 AO2 SLP255 T01170117 10122 20078 55000 =
2018-02-21 06:28 METAR KHPN 211128Z 18003KT 1SM R16/P6000FT BR SCT003 OVC012 12/12 A3028 RMK AO2
                 T01170117 =
2018-02-21 05:56 METAR KHPN 211056Z 00000KT 1/4SM R16/2000V4500FT FG VV001 12/12 A3028 RMK AO2
                 SLP253 T01170117 =
2018-02-21 05:50 METAR KHPN 211050Z 18003KT 1/4SM R16/1600V2400FT FG VV001 12/12 A3028 RMK AO2 =
2018-02-21 05:24 METAR KHPN 211024Z 16003KT 1/4SM R16/1200V1600FT FG VV001 12/12 A3028 RMK AO2
                 T01170117 =
2018-02-21 05:11 METAR KHPN 211011Z 14004KT 1/4SM R16/2000V4000FT FG VV001 12/12 A3028 RMK AO2
                 T01170117 =
2018-02-21 04:56 METAR KHPN 210956Z 00000KT 1/4SM R16/5500VP6000FT FG VV002 12/12 A3028 RMK AO2
                 SLP255 T01220122 =
2018-02-21 04:17 METAR KHPN 210917Z 00000KT 1/2SM R16/4500VP6000FT FG VV002 12/12 A3029 RMK AO2
                 T01220122 =
2018-02-21 03:56 METAR KHPN 210856Z 00000KT 1/4SM R16/2000V4500FT FG VV001 12/12 A3029 RMK AO2
                 SLP256 T01170117 56007 =
2018-02-21 02:56 METAR KHPN 210756Z 19003KT M1/4SM R16/1000FT FG VV001 11/11 A3029 RMK AO2 SLP257
                 T01110111 =
2018-02-21 02:17 METAR KHPN 210717Z 18004KT 1/4SM R16/1200V2200FT FG VV001 11/11 A3030 RMK AO2
                 T01060106 =
2018-02-21 01:56 METAR KHPN 210656Z VRB03KT 3/4SM R16/3000VP6000FT BR VV002 10/10 A3029 RMK AO2
                 SLP259 T01000100 =
2018-02-21 01:40 METAR KHPN 210640Z 00000KT 1 3/4SM BR BKN003 08/08 A3030 RMK AO2 T00830083 =
2018-02-21 01:07 METAR KHPN 210607Z 00000KT 1 3/4SM BR CLR 10/09 A3030 RMK AO2 T01000094 =
2018-02-21 00:56 METAR KHPN 210556Z 18003KT 5SM BR CLR 10/09 A3031 RMK AO2 SLP264 T01000094 10144
                 20094 58000 =
2018-02-20 23:56 METAR KHPN 210456Z 17003KT 7SM CLR 11/09 A3032 RMK AO2 SLP269 T01060094
                 401830044 =
2018-02-20 22:56 METAR KHPN 210356Z 19003KT 8SM CLR 13/11 A3031 RMK AO2 SLP265 T01280106 =
2018-02-20 21:56 METAR KHPN 210256Z 17003KT 7SM CLR 11/10 A3031 RMK AO2 SLP266 T01060100 52002 =
2018-02-20 20:56 METAR KHPN 210156Z 18003KT 7SM CLR 12/11 A3031 RMK AO2 SLP266 T01220106 =

Support USWX by starting your Amazon purchase here.